sensor_id;sensor_type;location;lat;lon;timestamp;P1;durP1;ratioP1;P2;durP2;ratioP2
10677;SDS011;5387;48.722;9.110;2024-01-07T00:02:05;18.07;;;11.20;;
10677;SDS011;5387;48.722;9.110;2024-01-07T00:04:32;15.37;;;9.93;;
10677;SDS011;5387;48.722;9.110;2024-01-07T00:07:00;18.77;;;11.17;;
10677;SDS011;5387;48.722;9.110;2024-01-07T00:09:27;17.30;;;10.40;;
10677;SDS011;5387;48.722;9.110;2024-01-07T00:11:54;17.17;;;10.57;;
10677;SDS011;5387;48.722;9.110;2024-01-07T00:14:21;17.73;;;11.80;;
10677;SDS011;5387;48.722;9.110;2024-01-07T00:16:48;19.10;;;9.93;;
10677;SDS011;5387;48.722;9.110;2024-01-07T00:19:15;17.53;;;10.37;;
10677;SDS011;5387;48.722;9.110;2024-01-07T00:21:42;16.23;;;10.67;;
10677;SDS011;5387;48.722;9.110;2024-01-07T00:24:10;16.90;;;10.47;;
10677;SDS011;5387;48.722;9.110;2024-01-07T00:26:37;13.27;;;8.37;;
10677;SDS011;5387;48.722;9.110;2024-01-07T00:29:04;15.83;;;8.97;;
10677;SDS011;5387;48.722;9.110;2024-01-07T00:31:31;18.03;;;10.97;;
10677;SDS011;5387;48.722;9.110;2024-01-07T00:33:57;21.33;;;10.67;;
10677;SDS011;5387;48.722;9.110;2024-01-07T00:36:24;17.27;;;10.27;;
10677;SDS011;5387;48.722;9.110;2024-01-07T00:38:51;26.07;;;11.57;;
10677;SDS011;5387;48.722;9.110;2024-01-07T00:41:19;20.20;;;11.07;;
10677;SDS011;5387;48.722;9.110;2024-01-07T00:43:46;18.77;;;11.10;;
10677;SDS011;5387;48.722;9.110;2024-01-07T00:46:13;18.80;;;10.77;;
10677;SDS011;5387;48.722;9.110;2024-01-07T00:48:40;16.17;;;10.30;;
10677;SDS011;5387;48.722;9.110;2024-01-07T00:51:06;19.67;;;11.07;;
10677;SDS011;5387;48.722;9.110;2024-01-07T00:53:33;16.90;;;10.03;;
10677;SDS011;5387;48.722;9.110;2024-01-07T00:56:00;15.63;;;10.87;;
10677;SDS011;5387;48.722;9.110;2024-01-07T00:58:28;19.13;;;9.83;;
10677;SDS011;5387;48.722;9.110;2024-01-07T01:00:55;19.37;;;11.13;;
10677;SDS011;5387;48.722;9.110;2024-01-07T01:03:22;20.00;;;12.23;;
10677;SDS011;5387;48.722;9.110;2024-01-07T01:05:49;21.27;;;12.70;;
10677;SDS011;5387;48.722;9.110;2024-01-07T01:08:16;19.87;;;12.20;;
10677;SDS011;5387;48.722;9.110;2024-01-07T01:10:42;20.87;;;12.13;;
10677;SDS011;5387;48.722;9.110;2024-01-07T01:13:09;15.00;;;9.20;;
10677;SDS011;5387;48.722;9.110;2024-01-07T01:15:37;25.67;;;13.40;;
10677;SDS011;5387;48.722;9.110;2024-01-07T01:18:05;24.70;;;13.23;;
10677;SDS011;5387;48.722;9.110;2024-01-07T01:20:31;29.87;;;13.43;;
10677;SDS011;5387;48.722;9.110;2024-01-07T01:22:58;33.03;;;13.67;;
10677;SDS011;5387;48.722;9.110;2024-01-07T01:25:25;29.00;;;14.63;;
10677;SDS011;5387;48.722;9.110;2024-01-07T01:27:52;29.00;;;12.90;;
10677;SDS011;5387;48.722;9.110;2024-01-07T01:30:19;29.50;;;13.93;;
10677;SDS011;5387;48.722;9.110;2024-01-07T01:32:47;26.57;;;13.80;;
10677;SDS011;5387;48.722;9.110;2024-01-07T01:35:14;28.23;;;12.37;;
10677;SDS011;5387;48.722;9.110;2024-01-07T01:37:40;33.60;;;12.67;;
10677;SDS011;5387;48.722;9.110;2024-01-07T01:40:08;34.20;;;15.03;;
10677;SDS011;5387;48.722;9.110;2024-01-07T01:42:35;31.47;;;13.93;;
10677;SDS011;5387;48.722;9.110;2024-01-07T01:45:02;38.90;;;13.07;;
10677;SDS011;5387;48.722;9.110;2024-01-07T01:47:29;30.40;;;12.37;;
10677;SDS011;5387;48.722;9.110;2024-01-07T01:49:58;28.80;;;13.00;;
10677;SDS011;5387;48.722;9.110;2024-01-07T01:52:25;39.97;;;11.57;;
10677;SDS011;5387;48.722;9.110;2024-01-07T01:54:52;49.73;;;13.87;;
10677;SDS011;5387;48.722;9.110;2024-01-07T01:57:19;38.97;;;13.23;;
10677;SDS011;5387;48.722;9.110;2024-01-07T01:59:48;83.33;;;14.30;;
10677;SDS011;5387;48.722;9.110;2024-01-07T02:02:15;54.37;;;12.00;;
10677;SDS011;5387;48.722;9.110;2024-01-07T02:04:42;46.77;;;13.23;;
10677;SDS011;5387;48.722;9.110;2024-01-07T02:07:10;50.63;;;13.53;;
10677;SDS011;5387;48.722;9.110;2024-01-07T02:09:37;106.43;;;14.03;;
10677;SDS011;5387;48.722;9.110;2024-01-07T02:12:05;64.90;;;14.67;;
10677;SDS011;5387;48.722;9.110;2024-01-07T02:14:36;53.67;;;14.03;;
10677;SDS011;5387;48.722;9.110;2024-01-07T02:17:03;86.63;;;14.13;;
10677;SDS011;5387;48.722;9.110;2024-01-07T02:19:30;35.83;;;11.97;;
10677;SDS011;5387;48.722;9.110;2024-01-07T02:21:57;43.73;;;14.30;;
10677;SDS011;5387;48.722;9.110;2024-01-07T02:24:25;39.13;;;9.80;;
10677;SDS011;5387;48.722;9.110;2024-01-07T02:26:52;52.83;;;15.20;;
10677;SDS011;5387;48.722;9.110;2024-01-07T02:29:18;32.77;;;14.97;;
10677;SDS011;5387;48.722;9.110;2024-01-07T02:31:45;30.83;;;12.37;;
10677;SDS011;5387;48.722;9.110;2024-01-07T02:34:12;40.30;;;14.30;;
10677;SDS011;5387;48.722;9.110;2024-01-07T02:36:39;38.43;;;15.80;;
10677;SDS011;5387;48.722;9.110;2024-01-07T02:39:05;35.27;;;15.23;;
10677;SDS011;5387;48.722;9.110;2024-01-07T02:41:33;67.83;;;17.83;;
10677;SDS011;5387;48.722;9.110;2024-01-07T02:44:00;33.73;;;14.33;;
10677;SDS011;5387;48.722;9.110;2024-01-07T02:46:27;37.13;;;16.13;;
10677;SDS011;5387;48.722;9.110;2024-01-07T02:48:54;54.73;;;19.20;;
10677;SDS011;5387;48.722;9.110;2024-01-07T02:51:21;53.73;;;17.27;;
10677;SDS011;5387;48.722;9.110;2024-01-07T02:53:47;41.77;;;15.87;;
10677;SDS011;5387;48.722;9.110;2024-01-07T02:56:14;34.63;;;13.40;;
10677;SDS011;5387;48.722;9.110;2024-01-07T02:58:42;82.30;;;17.37;;
10677;SDS011;5387;48.722;9.110;2024-01-07T03:01:09;34.93;;;15.33;;
10677;SDS011;5387;48.722;9.110;2024-01-07T03:03:36;26.93;;;14.10;;
10677;SDS011;5387;48.722;9.110;2024-01-07T03:06:03;32.37;;;15.93;;
10677;SDS011;5387;48.722;9.110;2024-01-07T03:08:30;20.17;;;10.13;;
10677;SDS011;5387;48.722;9.110;2024-01-07T03:10:57;34.57;;;16.07;;
10677;SDS011;5387;48.722;9.110;2024-01-07T03:13:24;32.13;;;15.67;;
10677;SDS011;5387;48.722;9.110;2024-01-07T03:15:52;32.77;;;14.97;;
10677;SDS011;5387;48.722;9.110;2024-01-07T03:18:19;37.73;;;16.97;;
10677;SDS011;5387;48.722;9.110;2024-01-07T03:20:44;36.97;;;18.90;;
10677;SDS011;5387;48.722;9.110;2024-01-07T03:23:11;32.93;;;16.40;;
10677;SDS011;5387;48.722;9.110;2024-01-07T03:25:37;35.77;;;15.50;;
10677;SDS011;5387;48.722;9.110;2024-01-07T03:28:04;33.43;;;17.17;;
10677;SDS011;5387;48.722;9.110;2024-01-07T03:30:31;21.67;;;11.37;;
10677;SDS011;5387;48.722;9.110;2024-01-07T03:32:59;29.00;;;15.57;;
10677;SDS011;5387;48.722;9.110;2024-01-07T03:35:26;30.37;;;15.67;;
10677;SDS011;5387;48.722;9.110;2024-01-07T03:37:53;36.47;;;16.23;;
10677;SDS011;5387;48.722;9.110;2024-01-07T03:40:20;38.37;;;16.67;;
10677;SDS011;5387;48.722;9.110;2024-01-07T03:42:47;25.77;;;14.67;;
10677;SDS011;5387;48.722;9.110;2024-01-07T03:45:14;34.47;;;17.80;;
10677;SDS011;5387;48.722;9.110;2024-01-07T03:47:40;29.13;;;14.90;;
10677;SDS011;5387;48.722;9.110;2024-01-07T03:50:09;16.30;;;8.07;;
10677;SDS011;5387;48.722;9.110;2024-01-07T03:52:35;32.37;;;15.37;;
10677;SDS011;5387;48.722;9.110;2024-01-07T03:55:02;24.77;;;14.43;;
10677;SDS011;5387;48.722;9.110;2024-01-07T03:57:30;28.43;;;14.27;;
10677;SDS011;5387;48.722;9.110;2024-01-07T03:59:58;32.23;;;16.93;;
10677;SDS011;5387;48.722;9.110;2024-01-07T04:02:25;29.97;;;15.20;;
10677;SDS011;5387;48.722;9.110;2024-01-07T04:04:51;28.27;;;15.60;;
10677;SDS011;5387;48.722;9.110;2024-01-07T04:07:20;29.30;;;14.97;;
10677;SDS011;5387;48.722;9.110;2024-01-07T04:09:46;33.50;;;14.70;;
10677;SDS011;5387;48.722;9.110;2024-01-07T04:12:13;28.40;;;15.27;;
10677;SDS011;5387;48.722;9.110;2024-01-07T04:14:40;27.03;;;15.00;;
10677;SDS011;5387;48.722;9.110;2024-01-07T04:17:07;26.93;;;12.47;;
10677;SDS011;5387;48.722;9.110;2024-01-07T04:19:35;30.27;;;14.57;;
10677;SDS011;5387;48.722;9.110;2024-01-07T04:22:03;26.27;;;13.77;;
10677;SDS011;5387;48.722;9.110;2024-01-07T04:24:31;30.90;;;14.83;;
10677;SDS011;5387;48.722;9.110;2024-01-07T04:26:58;28.17;;;14.70;;
10677;SDS011;5387;48.722;9.110;2024-01-07T04:29:24;24.60;;;12.60;;
10677;SDS011;5387;48.722;9.110;2024-01-07T04:31:51;36.07;;;14.67;;
10677;SDS011;5387;48.722;9.110;2024-01-07T04:34:18;28.40;;;14.67;;
10677;SDS011;5387;48.722;9.110;2024-01-07T04:36:45;27.43;;;14.43;;
10677;SDS011;5387;48.722;9.110;2024-01-07T04:39:12;29.47;;;15.93;;
10677;SDS011;5387;48.722;9.110;2024-01-07T04:41:41;26.23;;;13.17;;
10677;SDS011;5387;48.722;9.110;2024-01-07T04:44:07;22.70;;;14.10;;
10677;SDS011;5387;48.722;9.110;2024-01-07T04:46:34;26.13;;;13.03;;
10677;SDS011;5387;48.722;9.110;2024-01-07T04:49:04;29.07;;;13.93;;
10677;SDS011;5387;48.722;9.110;2024-01-07T04:51:31;21.33;;;12.07;;
10677;SDS011;5387;48.722;9.110;2024-01-07T04:53:58;28.03;;;13.47;;
10677;SDS011;5387;48.722;9.110;2024-01-07T04:56:24;28.33;;;14.23;;
10677;SDS011;5387;48.722;9.110;2024-01-07T04:58:52;24.87;;;12.93;;
10677;SDS011;5387;48.722;9.110;2024-01-07T05:01:19;23.27;;;12.23;;
10677;SDS011;5387;48.722;9.110;2024-01-07T05:03:46;21.43;;;12.23;;
10677;SDS011;5387;48.722;9.110;2024-01-07T05:06:13;15.10;;;9.73;;
10677;SDS011;5387;48.722;9.110;2024-01-07T05:08:40;25.40;;;13.03;;
10677;SDS011;5387;48.722;9.110;2024-01-07T05:11:07;20.30;;;11.87;;
10677;SDS011;5387;48.722;9.110;2024-01-07T05:13:34;22.63;;;13.03;;
10677;SDS011;5387;48.722;9.110;2024-01-07T05:16:03;18.70;;;10.87;;
10677;SDS011;5387;48.722;9.110;2024-01-07T05:18:30;23.97;;;12.87;;
10677;SDS011;5387;48.722;9.110;2024-01-07T05:20:57;24.27;;;12.07;;
10677;SDS011;5387;48.722;9.110;2024-01-07T05:23:23;17.97;;;9.60;;
10677;SDS011;5387;48.722;9.110;2024-01-07T05:25:50;22.80;;;12.60;;
10677;SDS011;5387;48.722;9.110;2024-01-07T05:28:17;15.60;;;9.53;;
10677;SDS011;5387;48.722;9.110;2024-01-07T05:30:45;18.70;;;11.13;;
10677;SDS011;5387;48.722;9.110;2024-01-07T05:33:14;34.20;;;11.53;;
10677;SDS011;5387;48.722;9.110;2024-01-07T05:35:40;13.10;;;8.07;;
10677;SDS011;5387;48.722;9.110;2024-01-07T05:38:07;16.63;;;9.50;;
10677;SDS011;5387;48.722;9.110;2024-01-07T05:40:34;19.00;;;10.27;;
10677;SDS011;5387;48.722;9.110;2024-01-07T05:43:01;15.30;;;9.17;;
10677;SDS011;5387;48.722;9.110;2024-01-07T05:45:27;19.27;;;9.10;;
10677;SDS011;5387;48.722;9.110;2024-01-07T05:47:54;18.97;;;11.00;;
10677;SDS011;5387;48.722;9.110;2024-01-07T05:50:22;16.93;;;10.53;;
10677;SDS011;5387;48.722;9.110;2024-01-07T05:52:49;20.90;;;11.23;;
10677;SDS011;5387;48.722;9.110;2024-01-07T05:55:16;15.67;;;10.07;;
10677;SDS011;5387;48.722;9.110;2024-01-07T05:57:43;15.40;;;9.53;;
10677;SDS011;5387;48.722;9.110;2024-01-07T06:00:10;15.97;;;9.20;;
10677;SDS011;5387;48.722;9.110;2024-01-07T06:02:38;24.10;;;11.33;;
10677;SDS011;5387;48.722;9.110;2024-01-07T06:05:05;21.30;;;12.63;;
10677;SDS011;5387;48.722;9.110;2024-01-07T06:07:33;24.30;;;12.00;;
10677;SDS011;5387;48.722;9.110;2024-01-07T06:10:00;20.20;;;11.97;;
10677;SDS011;5387;48.722;9.110;2024-01-07T06:12:27;21.50;;;12.10;;
10677;SDS011;5387;48.722;9.110;2024-01-07T06:14:54;25.13;;;12.10;;
10677;SDS011;5387;48.722;9.110;2024-01-07T06:17:20;19.73;;;11.87;;
10677;SDS011;5387;48.722;9.110;2024-01-07T06:19:47;25.60;;;12.10;;
10677;SDS011;5387;48.722;9.110;2024-01-07T06:22:14;18.20;;;10.97;;
10677;SDS011;5387;48.722;9.110;2024-01-07T06:24:42;21.23;;;12.17;;
10677;SDS011;5387;48.722;9.110;2024-01-07T06:27:09;13.73;;;8.07;;
10677;SDS011;5387;48.722;9.110;2024-01-07T06:29:36;17.57;;;11.53;;
10677;SDS011;5387;48.722;9.110;2024-01-07T06:32:03;21.33;;;10.90;;
10677;SDS011;5387;48.722;9.110;2024-01-07T06:34:30;21.70;;;11.70;;
10677;SDS011;5387;48.722;9.110;2024-01-07T06:36:58;16.83;;;11.50;;
10677;SDS011;5387;48.722;9.110;2024-01-07T06:39:25;19.40;;;11.07;;
10677;SDS011;5387;48.722;9.110;2024-01-07T06:41:54;17.43;;;10.40;;
10677;SDS011;5387;48.722;9.110;2024-01-07T06:44:21;18.67;;;11.23;;
10677;SDS011;5387;48.722;9.110;2024-01-07T06:46:47;20.67;;;11.30;;
10677;SDS011;5387;48.722;9.110;2024-01-07T06:49:14;18.30;;;10.83;;
10677;SDS011;5387;48.722;9.110;2024-01-07T06:51:41;21.20;;;11.27;;
10677;SDS011;5387;48.722;9.110;2024-01-07T06:54:08;21.07;;;12.50;;
10677;SDS011;5387;48.722;9.110;2024-01-07T06:56:35;22.50;;;11.87;;
10677;SDS011;5387;48.722;9.110;2024-01-07T06:59:03;22.03;;;12.47;;
10677;SDS011;5387;48.722;9.110;2024-01-07T07:01:30;19.90;;;11.57;;
10677;SDS011;5387;48.722;9.110;2024-01-07T07:03:57;19.23;;;12.13;;
10677;SDS011;5387;48.722;9.110;2024-01-07T07:06:23;18.23;;;11.83;;
10677;SDS011;5387;48.722;9.110;2024-01-07T07:08:50;21.27;;;11.73;;
10677;SDS011;5387;48.722;9.110;2024-01-07T07:11:17;22.17;;;12.33;;
10677;SDS011;5387;48.722;9.110;2024-01-07T07:13:44;16.77;;;10.90;;
10677;SDS011;5387;48.722;9.110;2024-01-07T07:16:12;19.23;;;11.97;;
10677;SDS011;5387;48.722;9.110;2024-01-07T07:18:39;18.13;;;11.77;;
10677;SDS011;5387;48.722;9.110;2024-01-07T07:21:07;19.00;;;11.93;;
10677;SDS011;5387;48.722;9.110;2024-01-07T07:23:34;18.33;;;10.90;;
10677;SDS011;5387;48.722;9.110;2024-01-07T07:26:00;15.60;;;8.87;;
10677;SDS011;5387;48.722;9.110;2024-01-07T07:28:27;16.87;;;10.20;;
10677;SDS011;5387;48.722;9.110;2024-01-07T07:30:54;18.73;;;10.60;;
10677;SDS011;5387;48.722;9.110;2024-01-07T07:33:22;18.57;;;10.83;;
10677;SDS011;5387;48.722;9.110;2024-01-07T07:35:49;15.50;;;10.07;;
10677;SDS011;5387;48.722;9.110;2024-01-07T07:38:16;16.90;;;10.77;;
10677;SDS011;5387;48.722;9.110;2024-01-07T07:40:43;13.87;;;10.17;;
10677;SDS011;5387;48.722;9.110;2024-01-07T07:43:10;15.63;;;9.97;;
10677;SDS011;5387;48.722;9.110;2024-01-07T07:45:37;14.97;;;10.10;;
10677;SDS011;5387;48.722;9.110;2024-01-07T07:48:04;16.80;;;9.87;;
10677;SDS011;5387;48.722;9.110;2024-01-07T07:50:33;12.70;;;8.47;;
10677;SDS011;5387;48.722;9.110;2024-01-07T07:53:00;12.33;;;8.73;;
10677;SDS011;5387;48.722;9.110;2024-01-07T07:55:27;13.03;;;8.20;;
10677;SDS011;5387;48.722;9.110;2024-01-07T07:57:54;14.77;;;8.50;;
10677;SDS011;5387;48.722;9.110;2024-01-07T08:00:21;11.70;;;7.30;;
10677;SDS011;5387;48.722;9.110;2024-01-07T08:02:48;15.83;;;7.60;;
10677;SDS011;5387;48.722;9.110;2024-01-07T08:05:15;11.33;;;7.67;;
10677;SDS011;5387;48.722;9.110;2024-01-07T08:07:43;11.93;;;8.13;;
10677;SDS011;5387;48.722;9.110;2024-01-07T08:10:10;10.40;;;7.40;;
10677;SDS011;5387;48.722;9.110;2024-01-07T08:12:37;11.67;;;7.13;;
10677;SDS011;5387;48.722;9.110;2024-01-07T08:15:04;13.47;;;7.63;;
10677;SDS011;5387;48.722;9.110;2024-01-07T08:17:31;12.47;;;7.20;;
10677;SDS011;5387;48.722;9.110;2024-01-07T08:19:58;12.77;;;7.63;;
10677;SDS011;5387;48.722;9.110;2024-01-07T08:22:26;14.23;;;8.50;;
10677;SDS011;5387;48.722;9.110;2024-01-07T08:24:57;11.93;;;7.53;;
10677;SDS011;5387;48.722;9.110;2024-01-07T08:27:24;11.10;;;7.60;;
10677;SDS011;5387;48.722;9.110;2024-01-07T08:29:51;7.73;;;5.23;;
10677;SDS011;5387;48.722;9.110;2024-01-07T08:32:18;13.50;;;7.43;;
10677;SDS011;5387;48.722;9.110;2024-01-07T08:34:47;11.80;;;7.77;;
10677;SDS011;5387;48.722;9.110;2024-01-07T08:37:14;10.50;;;7.07;;
10677;SDS011;5387;48.722;9.110;2024-01-07T08:39:41;8.40;;;5.40;;
10677;SDS011;5387;48.722;9.110;2024-01-07T08:42:09;9.63;;;6.67;;
10677;SDS011;5387;48.722;9.110;2024-01-07T08:44:39;10.20;;;6.90;;
10677;SDS011;5387;48.722;9.110;2024-01-07T08:47:05;11.20;;;7.57;;
10677;SDS011;5387;48.722;9.110;2024-01-07T08:49:32;11.90;;;8.13;;
10677;SDS011;5387;48.722;9.110;2024-01-07T08:51:59;15.20;;;7.10;;
10677;SDS011;5387;48.722;9.110;2024-01-07T08:54:26;12.03;;;7.60;;
10677;SDS011;5387;48.722;9.110;2024-01-07T08:56:53;9.70;;;6.33;;
10677;SDS011;5387;48.722;9.110;2024-01-07T08:59:21;12.07;;;8.07;;
10677;SDS011;5387;48.722;9.110;2024-01-07T09:01:48;13.20;;;7.60;;
10677;SDS011;5387;48.722;9.110;2024-01-07T09:04:15;12.20;;;7.03;;
10677;SDS011;5387;48.722;9.110;2024-01-07T09:06:42;11.10;;;7.23;;
10677;SDS011;5387;48.722;9.110;2024-01-07T09:09:09;9.60;;;6.43;;
10677;SDS011;5387;48.722;9.110;2024-01-07T09:11:36;11.00;;;7.50;;
10677;SDS011;5387;48.722;9.110;2024-01-07T09:14:03;13.03;;;7.37;;
10677;SDS011;5387;48.722;9.110;2024-01-07T09:16:31;13.20;;;7.47;;
10677;SDS011;5387;48.722;9.110;2024-01-07T09:18:58;11.77;;;7.80;;
10677;SDS011;5387;48.722;9.110;2024-01-07T09:21:25;10.50;;;5.57;;
10677;SDS011;5387;48.722;9.110;2024-01-07T09:23:52;8.83;;;6.27;;
10677;SDS011;5387;48.722;9.110;2024-01-07T09:26:18;7.93;;;5.60;;
10677;SDS011;5387;48.722;9.110;2024-01-07T09:28:45;9.67;;;5.13;;
10677;SDS011;5387;48.722;9.110;2024-01-07T09:31:12;9.97;;;4.53;;
10677;SDS011;5387;48.722;9.110;2024-01-07T09:33:40;8.63;;;4.87;;
10677;SDS011;5387;48.722;9.110;2024-01-07T09:36:07;6.87;;;4.60;;
10677;SDS011;5387;48.722;9.110;2024-01-07T09:38:34;6.47;;;4.60;;
10677;SDS011;5387;48.722;9.110;2024-01-07T09:41:01;6.87;;;4.87;;
10677;SDS011;5387;48.722;9.110;2024-01-07T09:43:28;5.90;;;4.23;;
10677;SDS011;5387;48.722;9.110;2024-01-07T09:45:55;5.93;;;4.33;;
10677;SDS011;5387;48.722;9.110;2024-01-07T09:48:24;5.90;;;4.37;;
10677;SDS011;5387;48.722;9.110;2024-01-07T09:50:52;10.37;;;4.73;;
10677;SDS011;5387;48.722;9.110;2024-01-07T09:53:20;9.27;;;3.67;;
10677;SDS011;5387;48.722;9.110;2024-01-07T09:55:51;5.30;;;3.80;;
10677;SDS011;5387;48.722;9.110;2024-01-07T09:58:27;5.27;;;3.57;;
10677;SDS011;5387;48.722;9.110;2024-01-07T10:00:54;4.80;;;4.13;;
10677;SDS011;5387;48.722;9.110;2024-01-07T10:03:21;6.77;;;3.53;;
10677;SDS011;5387;48.722;9.110;2024-01-07T10:05:48;6.43;;;3.80;;
10677;SDS011;5387;48.722;9.110;2024-01-07T10:08:16;10.70;;;4.70;;
10677;SDS011;5387;48.722;9.110;2024-01-07T10:10:43;5.13;;;3.67;;
10677;SDS011;5387;48.722;9.110;2024-01-07T10:13:09;5.70;;;4.30;;
10677;SDS011;5387;48.722;9.110;2024-01-07T10:15:36;5.23;;;4.20;;
10677;SDS011;5387;48.722;9.110;2024-01-07T10:18:03;5.87;;;4.20;;
10677;SDS011;5387;48.722;9.110;2024-01-07T10:20:31;6.57;;;4.90;;
10677;SDS011;5387;48.722;9.110;2024-01-07T10:22:59;5.60;;;4.23;;
10677;SDS011;5387;48.722;9.110;2024-01-07T10:25:27;5.97;;;4.70;;
10677;SDS011;5387;48.722;9.110;2024-01-07T10:27:54;7.47;;;5.47;;
10677;SDS011;5387;48.722;9.110;2024-01-07T10:30:20;8.50;;;5.47;;
10677;SDS011;5387;48.722;9.110;2024-01-07T10:32:48;7.77;;;5.40;;
10677;SDS011;5387;48.722;9.110;2024-01-07T10:35:14;7.83;;;4.50;;
10677;SDS011;5387;48.722;9.110;2024-01-07T10:37:44;9.37;;;5.53;;
10677;SDS011;5387;48.722;9.110;2024-01-07T10:40:11;7.13;;;4.57;;
10677;SDS011;5387;48.722;9.110;2024-01-07T10:42:39;6.93;;;4.93;;
10677;SDS011;5387;48.722;9.110;2024-01-07T10:45:09;9.37;;;6.00;;
10677;SDS011;5387;48.722;9.110;2024-01-07T10:47:36;8.83;;;6.03;;
10677;SDS011;5387;48.722;9.110;2024-01-07T10:50:06;6.77;;;4.90;;
10677;SDS011;5387;48.722;9.110;2024-01-07T10:52:37;6.40;;;4.87;;
10677;SDS011;5387;48.722;9.110;2024-01-07T10:55:08;8.77;;;5.23;;
10677;SDS011;5387;48.722;9.110;2024-01-07T10:57:41;8.60;;;4.80;;
10677;SDS011;5387;48.722;9.110;2024-01-07T11:00:10;7.27;;;5.20;;
10677;SDS011;5387;48.722;9.110;2024-01-07T11:02:46;10.07;;;6.07;;
10677;SDS011;5387;48.722;9.110;2024-01-07T11:05:26;9.50;;;5.20;;
10677;SDS011;5387;48.722;9.110;2024-01-07T11:07:59;7.30;;;4.83;;
10677;SDS011;5387;48.722;9.110;2024-01-07T11:10:32;9.47;;;5.47;;
10677;SDS011;5387;48.722;9.110;2024-01-07T11:13:05;6.30;;;5.03;;
10677;SDS011;5387;48.722;9.110;2024-01-07T11:18:17;8.47;;;5.50;;
10677;SDS011;5387;48.722;9.110;2024-01-07T11:20:45;6.10;;;4.70;;
10677;SDS011;5387;48.722;9.110;2024-01-07T11:23:31;6.90;;;4.90;;
10677;SDS011;5387;48.722;9.110;2024-01-07T11:25:59;8.57;;;5.63;;
10677;SDS011;5387;48.722;9.110;2024-01-07T11:31:17;6.63;;;5.27;;
10677;SDS011;5387;48.722;9.110;2024-01-07T11:33:45;7.47;;;5.33;;
10677;SDS011;5387;48.722;9.110;2024-01-07T11:36:12;7.47;;;5.13;;
10677;SDS011;5387;48.722;9.110;2024-01-07T11:38:43;8.50;;;5.17;;
10677;SDS011;5387;48.722;9.110;2024-01-07T11:41:11;7.83;;;5.40;;
10677;SDS011;5387;48.722;9.110;2024-01-07T11:43:52;7.17;;;5.23;;
10677;SDS011;5387;48.722;9.110;2024-01-07T11:46:20;7.27;;;4.67;;
10677;SDS011;5387;48.722;9.110;2024-01-07T11:48:47;6.73;;;5.40;;
10677;SDS011;5387;48.722;9.110;2024-01-07T11:51:14;6.53;;;4.37;;
10677;SDS011;5387;48.722;9.110;2024-01-07T11:53:42;7.97;;;5.07;;
10677;SDS011;5387;48.722;9.110;2024-01-07T11:56:12;7.97;;;5.63;;
10677;SDS011;5387;48.722;9.110;2024-01-07T11:58:39;7.70;;;4.57;;
10677;SDS011;5387;48.722;9.110;2024-01-07T12:01:07;9.53;;;5.50;;
10677;SDS011;5387;48.722;9.110;2024-01-07T12:03:34;7.93;;;5.03;;
10677;SDS011;5387;48.722;9.110;2024-01-07T12:06:01;6.80;;;5.53;;
10677;SDS011;5387;48.722;9.110;2024-01-07T12:08:28;8.83;;;5.30;;
10677;SDS011;5387;48.722;9.110;2024-01-07T12:10:56;6.17;;;5.03;;
10677;SDS011;5387;48.722;9.110;2024-01-07T12:13:23;7.43;;;5.17;;
10677;SDS011;5387;48.722;9.110;2024-01-07T12:15:50;7.40;;;5.20;;
10677;SDS011;5387;48.722;9.110;2024-01-07T12:18:19;6.60;;;5.13;;
10677;SDS011;5387;48.722;9.110;2024-01-07T12:20:54;6.90;;;5.20;;
10677;SDS011;5387;48.722;9.110;2024-01-07T12:23:22;7.97;;;5.43;;
10677;SDS011;5387;48.722;9.110;2024-01-07T12:25:48;9.67;;;5.40;;
10677;SDS011;5387;48.722;9.110;2024-01-07T12:28:16;7.33;;;4.90;;
10677;SDS011;5387;48.722;9.110;2024-01-07T12:30:43;8.83;;;5.67;;
10677;SDS011;5387;48.722;9.110;2024-01-07T12:33:10;7.27;;;5.30;;
10677;SDS011;5387;48.722;9.110;2024-01-07T12:35:38;8.63;;;5.20;;
10677;SDS011;5387;48.722;9.110;2024-01-07T12:38:05;6.23;;;5.17;;
10677;SDS011;5387;48.722;9.110;2024-01-07T12:40:32;8.67;;;6.50;;
10677;SDS011;5387;48.722;9.110;2024-01-07T12:43:00;10.00;;;5.70;;
10677;SDS011;5387;48.722;9.110;2024-01-07T12:45:27;9.90;;;6.33;;
10677;SDS011;5387;48.722;9.110;2024-01-07T12:47:54;7.97;;;5.63;;
10677;SDS011;5387;48.722;9.110;2024-01-07T12:50:23;8.30;;;5.90;;
10677;SDS011;5387;48.722;9.110;2024-01-07T12:52:54;9.60;;;6.03;;
10677;SDS011;5387;48.722;9.110;2024-01-07T12:55:21;9.23;;;6.40;;
10677;SDS011;5387;48.722;9.110;2024-01-07T12:57:48;7.20;;;5.17;;
10677;SDS011;5387;48.722;9.110;2024-01-07T13:00:15;7.33;;;5.17;;
10677;SDS011;5387;48.722;9.110;2024-01-07T13:02:43;8.77;;;6.63;;
10677;SDS011;5387;48.722;9.110;2024-01-07T13:05:10;9.77;;;6.10;;
10677;SDS011;5387;48.722;9.110;2024-01-07T13:07:37;9.47;;;6.30;;
10677;SDS011;5387;48.722;9.110;2024-01-07T13:10:06;9.43;;;6.40;;
10677;SDS011;5387;48.722;9.110;2024-01-07T13:12:34;8.13;;;5.63;;
10677;SDS011;5387;48.722;9.110;2024-01-07T13:15:01;9.33;;;6.37;;
10677;SDS011;5387;48.722;9.110;2024-01-07T13:17:28;9.63;;;7.03;;
10677;SDS011;5387;48.722;9.110;2024-01-07T13:19:55;8.83;;;6.10;;
10677;SDS011;5387;48.722;9.110;2024-01-07T13:22:22;9.77;;;6.50;;
10677;SDS011;5387;48.722;9.110;2024-01-07T13:24:49;7.23;;;5.43;;
10677;SDS011;5387;48.722;9.110;2024-01-07T13:27:17;7.90;;;6.27;;
10677;SDS011;5387;48.722;9.110;2024-01-07T13:29:44;10.10;;;6.57;;
10677;SDS011;5387;48.722;9.110;2024-01-07T13:32:12;9.40;;;6.43;;
10677;SDS011;5387;48.722;9.110;2024-01-07T13:34:40;9.37;;;6.50;;
10677;SDS011;5387;48.722;9.110;2024-01-07T13:37:06;7.60;;;5.67;;
10677;SDS011;5387;48.722;9.110;2024-01-07T13:39:33;10.70;;;6.80;;
10677;SDS011;5387;48.722;9.110;2024-01-07T13:42:00;16.07;;;6.33;;
10677;SDS011;5387;48.722;9.110;2024-01-07T13:44:28;11.13;;;7.90;;
10677;SDS011;5387;48.722;9.110;2024-01-07T13:46:55;10.07;;;7.53;;
10677;SDS011;5387;48.722;9.110;2024-01-07T13:49:22;12.87;;;7.00;;
10677;SDS011;5387;48.722;9.110;2024-01-07T13:51:49;7.80;;;5.07;;
10677;SDS011;5387;48.722;9.110;2024-01-07T13:54:15;9.33;;;6.40;;
10677;SDS011;5387;48.722;9.110;2024-01-07T13:56:42;11.53;;;7.03;;
10677;SDS011;5387;48.722;9.110;2024-01-07T13:59:09;9.57;;;6.67;;
10677;SDS011;5387;48.722;9.110;2024-01-07T14:01:38;11.47;;;7.73;;
10677;SDS011;5387;48.722;9.110;2024-01-07T14:04:07;11.13;;;7.23;;
10677;SDS011;5387;48.722;9.110;2024-01-07T14:06:34;11.97;;;7.57;;
10677;SDS011;5387;48.722;9.110;2024-01-07T14:09:01;10.13;;;6.90;;
10677;SDS011;5387;48.722;9.110;2024-01-07T14:11:28;10.93;;;7.50;;
10677;SDS011;5387;48.722;9.110;2024-01-07T14:13:55;11.50;;;7.80;;
10677;SDS011;5387;48.722;9.110;2024-01-07T14:16:22;8.40;;;6.27;;
10677;SDS011;5387;48.722;9.110;2024-01-07T14:18:50;11.67;;;7.07;;
10677;SDS011;5387;48.722;9.110;2024-01-07T14:21:17;11.20;;;7.47;;
10677;SDS011;5387;48.722;9.110;2024-01-07T14:23:44;13.30;;;7.70;;
10677;SDS011;5387;48.722;9.110;2024-01-07T14:26:10;13.20;;;7.70;;
10677;SDS011;5387;48.722;9.110;2024-01-07T14:28:37;13.63;;;7.97;;
10677;SDS011;5387;48.722;9.110;2024-01-07T14:31:04;12.60;;;7.63;;
10677;SDS011;5387;48.722;9.110;2024-01-07T14:33:32;11.40;;;7.90;;
10677;SDS011;5387;48.722;9.110;2024-01-07T14:36:00;11.77;;;7.77;;
10677;SDS011;5387;48.722;9.110;2024-01-07T14:38:29;10.90;;;8.00;;
10677;SDS011;5387;48.722;9.110;2024-01-07T14:40:55;10.47;;;6.83;;
10677;SDS011;5387;48.722;9.110;2024-01-07T14:43:22;10.53;;;6.77;;
10677;SDS011;5387;48.722;9.110;2024-01-07T14:45:49;15.37;;;7.50;;
10677;SDS011;5387;48.722;9.110;2024-01-07T14:48:16;11.67;;;7.90;;
10677;SDS011;5387;48.722;9.110;2024-01-07T14:50:43;14.43;;;8.13;;
10677;SDS011;5387;48.722;9.110;2024-01-07T14:53:14;11.97;;;8.20;;